This is the latest recevied weather packets stored in our database for station/object W8CWV-13. If no packets are shown the sender has not sent any weather packets the latest 10 day(s).
| Time | Temp. | Humidity | Pressure | Rain* | Wind** | Luminosity | Snow |
|---|---|---|---|---|---|---|---|
| 1778016702 | 28.89° C | 100% | 1015.2 hPa | - | - | - | - |
| 1778016129 | 28.89° C | 100% | 1015.2 hPa | - | - | - | - |
| 1778015554 | 28.89° C | 100% | 1015.2 hPa | - | - | - | - |
| 1778014983 | 28.89° C | 100% | 1015.3 hPa | - | - | - | - |
| 1778014405 | 28.89° C | 100% | 1015.3 hPa | - | - | - | - |
| 1778013836 | 30.56° C | 100% | 1015 hPa | - | - | - | - |
| 1778013257 | 31.11° C | 100% | 1014.9 hPa | - | - | - | - |
| 1778012691 | 32.22° C | 100% | 1014.8 hPa | - | - | - | - |
| 1778012113 | 31.67° C | 100% | 1014.9 hPa | - | - | - | - |
| 1778011542 | 31.11° C | 100% | 1014.9 hPa | - | - | - | - |
| 1778010967 | 32.22° C | 100% | 1014.9 hPa | - | - | - | - |
| 1778010395 | 32.78° C | 100% | 1015 hPa | - | - | - | - |
| 1778009822 | 33.33° C | 100% | 1015 hPa | - | - | - | - |
| 1778009246 | 32.78° C | 100% | 1015.2 hPa | - | - | - | - |
| 1778008673 | 32.78° C | 100% | 1015.4 hPa | - | - | - | - |
| 1778008103 | 32.22° C | 100% | 1015.5 hPa | - | - | - | - |
| 1778007522 | 31.67° C | 100% | 1015.7 hPa | - | - | - | - |
| 1778006950 | 31.11° C | 100% | 1015.9 hPa | - | - | - | - |
| 1778006377 | 31.67° C | 100% | 1016 hPa | - | - | - | - |
| 1778005795 | 29.44° C | 100% | 1016.2 hPa | - | - | - | - |
| 1778005224 | 28.89° C | 100% | 1016.6 hPa | - | - | - | - |
| 1778004656 | 30° C | 100% | 1016.5 hPa | - | - | - | - |
| 1778004080 | 30° C | 100% | 1016.7 hPa | - | - | - | - |
| 1778003504 | 30° C | 100% | 1016.8 hPa | - | - | - | - |
| 1778002933 | 31.11° C | 100% | 1016.7 hPa | - | - | - | - |
* Rain since midnight (hover to see other rain measurements)
** Current wind speed in m/s (hover to see current wind gust speed)